Flight Track Log - Related Links

Times and Time Zones

All times are in EDT time to prevent confusion due to time zone crossing. See the SKW5500 flight status page for this flight to view local times or setup timezone preferences in your user account.


Time Position Orientation Groundspeed Altitude Reporting Facility
EDT Latitude Longitude Course Direction KTS MPH feet Rate Location/Type
Mon 06:25:00 PM 39.3480 -106.8791 358° North  Level FlightAware Approximate
Mon 06:25:57 PM 39.3103 -107.0206 358° North 274 315 13,300  Level Denver Center
Mon 06:26:00 PM 39.4089 -106.7994 101° East  Level FlightAware Approximate
Mon 06:27:00 PM 39.3924 -106.6920 101° East  Level FlightAware Approximate
Mon 06:27:00 PM 39.3776 -106.9456 41° Northeast  Level FlightAware Approximate
Mon 06:28:00 PM 39.3709 -106.5711 104° East  Level FlightAware Approximate
Mon 06:28:01 PM 39.3719 -106.8533 41° Northeast 309 356 18,500  Level Denver Center
Mon 06:29:00 PM 39.3432 -106.4531 123° Southeast  Level FlightAware Approximate
Mon 06:29:03 PM 39.3653 -106.7336 94° East 325 374 20,800  Level Denver Center
Mon 06:30:04 PM 39.3569 -106.5883 94° East 361 415 21,000 98 Climbing Denver Center
Mon 06:31:06 PM 39.3522 -106.4581 93° East 376 433 21,000  Level Denver Center
Mon 06:32:08 PM 39.3600 -106.3083 86° East 376 433 21,000 -242 Level Denver Center
Mon 06:33:10 PM 39.3664 -106.1742 86° East 384 442 20,500 -435 Descending Denver Center
Mon 06:34:12 PM 39.3717 -106.0431 87° East 384 442 20,100 -488 Descending Denver Center
Mon 06:35:13 PM 39.3789 -105.8842 87° East 376 433 19,500 -537 Descending Denver Center
Mon 06:36:15 PM 39.3847 -105.7492 87° East 373 429 19,000 -517 Descending Denver Center
Mon 06:38:07 PM 39.4000 -105.5167 85° East 349 402 18,000 -584 Descending Denver TRACON
Mon 06:39:20 PM 39.3956 -105.3700 92° East 311 358 17,200 -889 Descending Denver Center
Mon 06:40:22 PM 39.3839 -105.2592 98° East 312 359 16,000 -1,065 Descending Denver Center
Mon 06:41:24 PM 39.3736 -105.1531 97° East 301 346 15,000 -1,065 Descending Denver Center
Mon 06:42:26 PM 39.3647 -105.0419 96° East 290 334 13,800 -976 Descending Denver Center
Mon 06:43:27 PM 39.3706 -104.9511 85° East 255 293 13,000 -647 Descending Denver Center
Mon 06:45:13 PM 39.3833 -104.8000 84° East 250 288 12,000 -713 Descending Denver TRACON
Mon 06:46:07 PM 39.4333 -104.7500 38° Northeast 258 297 11,100 -1,000 Descending Denver TRACON
Mon 06:47:13 PM 39.5000 -104.7000 30° Northeast 249 287 10,000 -667 Descending Denver TRACON
Mon 06:48:13 PM 39.5667 -104.6667 21° North 246 283 9,700 -361 Descending Denver TRACON
Mon 06:48:36 PM 39.5886 -104.6631 North 244 281 9,500 -706 Descending Denver Center
Mon 06:49:38 PM 39.6628 -104.6628 360° North 243 280 8,700 -1,024 Descending Denver Center
Mon 06:50:39 PM 39.7300 -104.6617 North 241 277 7,400 -1,122 Descending Denver Center
Mon 06:51:41 PM 39.7800 -104.6611 360° North 174 200 6,400 -871 Descending Denver Center
Mon 06:52:43 PM 39.8211 -104.6611 360° North 141 162 5,600 -774 Descending Denver Center

Login

Don't have an account? Register now (free) for customized features, flight alerts, and more!